Portada
METAR-TAF:

METAR-TAF

Aeroports :

Beirut, Líban

latitud: 33-49N, longitud: 035-29E, altitud: 29 m

Observació

L'informe es va fer fa 43 minuts, a les 02:00 UTC
Vent 6 kt del Est
Temperatura 25°C
Humitat 54%
Pressió 1014 hPa
Visibilitat: 8000 m

METAR: OLBA 230200Z 10006KT 8000 NSC 25/15 Q1014 NOSIG

Hora: 05:43 (02:43 UTC)

Pronòstic

L'informe es va fer fa 4 hores i 43 minuts, a les 22:00 UTC
Pronòstic vàlid del 23 a les 00 UTC al 24 a les 06 UTC
Vent 5 kt del Est
Visibilitat: 8000 m
Escasses núvols a una alçada de 2700 ft
Evolucionant progressivament
l' 23 a les 06 UTC al 23 a les 09 UTC
Vent 10 kt del Nord/Nord-Oest
Evolucionant progressivament
l' 23 a les 15 UTC al 23 a les 18 UTC
Vent 3 kt amb direcció variable

TAF: OLBA 222200Z 2300/2406 10005KT 8000 FEW027 BECMG 2306/2309 33010KT BECMG 2315/2318 VRB03KT

Observacions i pronòstics meteorològics de més de 4000 aeroports (METAR i TAF).

Les estacions disponibles són els punts grocs i vermells al mapa.

Posi el ratolí al punt desitjat per veure el nom de l'estació.

Feu clic per veure les observacions i els pronòstics meteorològics.

Per canviar el mapa: feu clic els botons verds amb una creu de color negre per apropar; al botó verd amb un guió per allunyar la imatge; o en les fletxes verdes per a mapes adjacents.


METAR-TAF: